sensor_id;sensor_type;location;lat;lon;timestamp;temperature;humidity
67147;DHT22;70072;52.036;5.558;2024-03-22T00:02:21;19.10;65.70
67147;DHT22;70072;52.036;5.558;2024-03-22T00:04:47;19.10;65.60
67147;DHT22;70072;52.036;5.558;2024-03-22T00:07:12;19.10;65.70
67147;DHT22;70072;52.036;5.558;2024-03-22T00:09:38;19.10;65.60
67147;DHT22;70072;52.036;5.558;2024-03-22T00:12:04;19.10;65.70
67147;DHT22;70072;52.036;5.558;2024-03-22T00:14:30;19.00;65.60
67147;DHT22;70072;52.036;5.558;2024-03-22T00:16:55;19.10;65.70
67147;DHT22;70072;52.036;5.558;2024-03-22T00:19:23;19.10;65.60
67147;DHT22;70072;52.036;5.558;2024-03-22T00:21:49;19.00;66.20
67147;DHT22;70072;52.036;5.558;2024-03-22T00:24:14;19.10;65.70
67147;DHT22;70072;52.036;5.558;2024-03-22T00:26:40;19.10;65.70
67147;DHT22;70072;52.036;5.558;2024-03-22T00:29:05;19.00;65.60
67147;DHT22;70072;52.036;5.558;2024-03-22T00:31:31;19.00;65.60
67147;DHT22;70072;52.036;5.558;2024-03-22T00:33:57;19.10;65.70
67147;DHT22;70072;52.036;5.558;2024-03-22T00:36:23;19.10;65.70
67147;DHT22;70072;52.036;5.558;2024-03-22T00:38:48;19.00;65.60
67147;DHT22;70072;52.036;5.558;2024-03-22T00:41:14;19.10;65.70
67147;DHT22;70072;52.036;5.558;2024-03-22T00:43:40;19.10;65.70
67147;DHT22;70072;52.036;5.558;2024-03-22T00:46:05;19.10;65.70
67147;DHT22;70072;52.036;5.558;2024-03-22T00:48:31;19.00;65.60
67147;DHT22;70072;52.036;5.558;2024-03-22T00:50:57;19.00;65.60
67147;DHT22;70072;52.036;5.558;2024-03-22T00:53:25;19.10;65.70
67147;DHT22;70072;52.036;5.558;2024-03-22T00:55:51;19.10;65.80
67147;DHT22;70072;52.036;5.558;2024-03-22T00:58:18;19.10;65.70
67147;DHT22;70072;52.036;5.558;2024-03-22T01:00:44;19.10;65.70
67147;DHT22;70072;52.036;5.558;2024-03-22T01:03:13;19.10;65.80
67147;DHT22;70072;52.036;5.558;2024-03-22T01:05:38;19.10;65.80
67147;DHT22;70072;52.036;5.558;2024-03-22T01:08:06;19.10;65.70
67147;DHT22;70072;52.036;5.558;2024-03-22T01:10:33;19.00;65.70
67147;DHT22;70072;52.036;5.558;2024-03-22T01:12:59;19.00;65.70
67147;DHT22;70072;52.036;5.558;2024-03-22T01:15:25;19.00;65.80
67147;DHT22;70072;52.036;5.558;2024-03-22T01:17:52;19.00;65.80
67147;DHT22;70072;52.036;5.558;2024-03-22T01:20:18;19.00;65.80
67147;DHT22;70072;52.036;5.558;2024-03-22T01:22:43;19.00;65.80
67147;DHT22;70072;52.036;5.558;2024-03-22T01:25:09;19.00;65.80
67147;DHT22;70072;52.036;5.558;2024-03-22T01:27:37;19.00;65.80
67147;DHT22;70072;52.036;5.558;2024-03-22T01:30:03;19.00;65.80
67147;DHT22;70072;52.036;5.558;2024-03-22T01:32:29;19.00;65.80
67147;DHT22;70072;52.036;5.558;2024-03-22T01:34:55;19.00;65.80
67147;DHT22;70072;52.036;5.558;2024-03-22T01:37:20;19.00;65.80
67147;DHT22;70072;52.036;5.558;2024-03-22T01:39:48;19.00;65.90
67147;DHT22;70072;52.036;5.558;2024-03-22T01:42:14;19.00;66.50
67147;DHT22;70072;52.036;5.558;2024-03-22T01:44:42;19.00;65.90
67147;DHT22;70072;52.036;5.558;2024-03-22T01:47:08;19.00;65.80
67147;DHT22;70072;52.036;5.558;2024-03-22T01:49:34;19.00;65.80
67147;DHT22;70072;52.036;5.558;2024-03-22T01:52:00;19.00;65.90
67147;DHT22;70072;52.036;5.558;2024-03-22T01:54:26;19.00;65.90
67147;DHT22;70072;52.036;5.558;2024-03-22T01:56:52;19.00;65.90
67147;DHT22;70072;52.036;5.558;2024-03-22T01:59:18;19.00;65.90
67147;DHT22;70072;52.036;5.558;2024-03-22T02:01:44;19.00;65.90
67147;DHT22;70072;52.036;5.558;2024-03-22T02:04:10;19.00;65.90
67147;DHT22;70072;52.036;5.558;2024-03-22T02:06:35;19.00;66.00
67147;DHT22;70072;52.036;5.558;2024-03-22T02:09:01;19.00;65.90
67147;DHT22;70072;52.036;5.558;2024-03-22T02:11:32;19.00;65.90
67147;DHT22;70072;52.036;5.558;2024-03-22T02:13:58;19.00;65.90
67147;DHT22;70072;52.036;5.558;2024-03-22T02:16:23;19.00;65.90
67147;DHT22;70072;52.036;5.558;2024-03-22T02:18:49;19.00;66.00
67147;DHT22;70072;52.036;5.558;2024-03-22T02:21:15;19.00;65.90
67147;DHT22;70072;52.036;5.558;2024-03-22T02:23:41;19.00;65.90
67147;DHT22;70072;52.036;5.558;2024-03-22T02:26:07;19.00;66.00
67147;DHT22;70072;52.036;5.558;2024-03-22T02:28:34;19.00;66.00
67147;DHT22;70072;52.036;5.558;2024-03-22T02:31:02;19.00;66.00
67147;DHT22;70072;52.036;5.558;2024-03-22T02:33:28;19.00;66.00
67147;DHT22;70072;52.036;5.558;2024-03-22T02:35:54;19.00;66.00
67147;DHT22;70072;52.036;5.558;2024-03-22T02:38:20;19.00;66.00
67147;DHT22;70072;52.036;5.558;2024-03-22T02:40:47;19.00;66.00
67147;DHT22;70072;52.036;5.558;2024-03-22T02:43:13;19.00;66.00
67147;DHT22;70072;52.036;5.558;2024-03-22T02:45:39;19.00;66.60
67147;DHT22;70072;52.036;5.558;2024-03-22T02:48:05;19.00;66.00
67147;DHT22;70072;52.036;5.558;2024-03-22T02:50:34;19.00;66.00
67147;DHT22;70072;52.036;5.558;2024-03-22T02:53:00;19.00;66.00
67147;DHT22;70072;52.036;5.558;2024-03-22T02:55:26;19.00;66.00
67147;DHT22;70072;52.036;5.558;2024-03-22T02:57:51;19.00;66.00
67147;DHT22;70072;52.036;5.558;2024-03-22T03:00:17;19.00;66.00
67147;DHT22;70072;52.036;5.558;2024-03-22T03:02:44;19.00;66.00
67147;DHT22;70072;52.036;5.558;2024-03-22T03:05:11;19.00;66.00
67147;DHT22;70072;52.036;5.558;2024-03-22T03:07:39;19.00;66.00
67147;DHT22;70072;52.036;5.558;2024-03-22T03:10:06;18.90;66.60
67147;DHT22;70072;52.036;5.558;2024-03-22T03:12:32;19.00;66.10
67147;DHT22;70072;52.036;5.558;2024-03-22T03:14:57;19.00;66.00
67147;DHT22;70072;52.036;5.558;2024-03-22T03:17:23;19.00;66.10
67147;DHT22;70072;52.036;5.558;2024-03-22T03:19:49;19.00;66.10
67147;DHT22;70072;52.036;5.558;2024-03-22T03:22:14;19.00;66.10
67147;DHT22;70072;52.036;5.558;2024-03-22T03:24:40;19.00;66.70
67147;DHT22;70072;52.036;5.558;2024-03-22T03:27:06;19.00;66.10
67147;DHT22;70072;52.036;5.558;2024-03-22T03:29:31;19.00;66.10
67147;DHT22;70072;52.036;5.558;2024-03-22T03:31:57;18.90;66.10
67147;DHT22;70072;52.036;5.558;2024-03-22T03:34:23;19.00;66.10
67147;DHT22;70072;52.036;5.558;2024-03-22T03:36:48;19.00;66.10
67147;DHT22;70072;52.036;5.558;2024-03-22T03:39:14;19.00;66.10
67147;DHT22;70072;52.036;5.558;2024-03-22T03:41:40;19.00;66.10
67147;DHT22;70072;52.036;5.558;2024-03-22T03:44:05;19.00;66.10
67147;DHT22;70072;52.036;5.558;2024-03-22T03:46:33;19.00;66.20
67147;DHT22;70072;52.036;5.558;2024-03-22T03:48:58;19.00;66.10
67147;DHT22;70072;52.036;5.558;2024-03-22T03:51:24;19.00;66.20
67147;DHT22;70072;52.036;5.558;2024-03-22T03:53:50;19.00;66.10
67147;DHT22;70072;52.036;5.558;2024-03-22T03:56:15;19.00;66.10
67147;DHT22;70072;52.036;5.558;2024-03-22T03:58:41;19.00;66.10
67147;DHT22;70072;52.036;5.558;2024-03-22T04:01:11;18.90;66.10
67147;DHT22;70072;52.036;5.558;2024-03-22T04:03:37;18.90;66.10
67147;DHT22;70072;52.036;5.558;2024-03-22T04:06:02;18.90;66.10
67147;DHT22;70072;52.036;5.558;2024-03-22T04:08:31;19.00;66.10
67147;DHT22;70072;52.036;5.558;2024-03-22T04:10:57;18.90;66.10
67147;DHT22;70072;52.036;5.558;2024-03-22T04:13:26;18.90;66.10
67147;DHT22;70072;52.036;5.558;2024-03-22T04:15:58;18.90;66.10
67147;DHT22;70072;52.036;5.558;2024-03-22T04:18:24;18.90;66.10
67147;DHT22;70072;52.036;5.558;2024-03-22T04:20:59;18.90;66.10
67147;DHT22;70072;52.036;5.558;2024-03-22T04:23:25;18.90;66.80
67147;DHT22;70072;52.036;5.558;2024-03-22T04:25:58;18.90;66.10
67147;DHT22;70072;52.036;5.558;2024-03-22T04:28:24;18.90;66.20
67147;DHT22;70072;52.036;5.558;2024-03-22T04:33:25;18.90;66.10
67147;DHT22;70072;52.036;5.558;2024-03-22T04:35:51;18.90;66.10
67147;DHT22;70072;52.036;5.558;2024-03-22T04:38:16;18.90;66.70
67147;DHT22;70072;52.036;5.558;2024-03-22T04:40:42;18.90;66.80
67147;DHT22;70072;52.036;5.558;2024-03-22T04:43:10;18.90;66.20
67147;DHT22;70072;52.036;5.558;2024-03-22T04:45:36;18.90;66.20
67147;DHT22;70072;52.036;5.558;2024-03-22T04:48:03;18.90;66.10
67147;DHT22;70072;52.036;5.558;2024-03-22T04:50:28;18.90;66.20
67147;DHT22;70072;52.036;5.558;2024-03-22T04:52:54;18.90;66.20
67147;DHT22;70072;52.036;5.558;2024-03-22T04:55:20;18.90;66.20
67147;DHT22;70072;52.036;5.558;2024-03-22T04:57:46;18.90;66.20
67147;DHT22;70072;52.036;5.558;2024-03-22T05:00:12;18.90;66.20
67147;DHT22;70072;52.036;5.558;2024-03-22T05:02:38;18.90;66.20
67147;DHT22;70072;52.036;5.558;2024-03-22T05:05:03;18.90;66.20
67147;DHT22;70072;52.036;5.558;2024-03-22T05:07:29;18.90;66.20
67147;DHT22;70072;52.036;5.558;2024-03-22T05:09:55;18.90;66.20
67147;DHT22;70072;52.036;5.558;2024-03-22T05:12:22;18.90;66.20
67147;DHT22;70072;52.036;5.558;2024-03-22T05:14:48;18.90;66.20
67147;DHT22;70072;52.036;5.558;2024-03-22T05:17:14;18.90;66.20
67147;DHT22;70072;52.036;5.558;2024-03-22T05:19:39;18.90;66.20
67147;DHT22;70072;52.036;5.558;2024-03-22T05:22:05;18.90;66.20
67147;DHT22;70072;52.036;5.558;2024-03-22T05:24:31;18.90;66.20
67147;DHT22;70072;52.036;5.558;2024-03-22T05:26:58;18.90;66.20
67147;DHT22;70072;52.036;5.558;2024-03-22T05:29:23;18.90;66.20
67147;DHT22;70072;52.036;5.558;2024-03-22T05:31:50;18.90;66.20
67147;DHT22;70072;52.036;5.558;2024-03-22T05:34:18;18.90;66.20
67147;DHT22;70072;52.036;5.558;2024-03-22T05:36:45;18.90;66.90
67147;DHT22;70072;52.036;5.558;2024-03-22T05:39:11;18.90;66.20
67147;DHT22;70072;52.036;5.558;2024-03-22T05:41:37;18.90;66.20
67147;DHT22;70072;52.036;5.558;2024-03-22T05:44:03;18.90;66.20
67147;DHT22;70072;52.036;5.558;2024-03-22T05:46:29;18.90;66.20
67147;DHT22;70072;52.036;5.558;2024-03-22T05:48:57;18.90;66.20
67147;DHT22;70072;52.036;5.558;2024-03-22T05:51:24;18.90;66.20
67147;DHT22;70072;52.036;5.558;2024-03-22T05:53:50;18.90;66.20
67147;DHT22;70072;52.036;5.558;2024-03-22T05:56:15;18.90;66.20
67147;DHT22;70072;52.036;5.558;2024-03-22T05:58:41;18.90;66.20
67147;DHT22;70072;52.036;5.558;2024-03-22T06:01:06;18.90;66.30
67147;DHT22;70072;52.036;5.558;2024-03-22T06:03:32;18.80;66.20
67147;DHT22;70072;52.036;5.558;2024-03-22T06:06:01;18.90;66.20
67147;DHT22;70072;52.036;5.558;2024-03-22T06:08:27;18.90;66.20
67147;DHT22;70072;52.036;5.558;2024-03-22T06:10:57;18.90;66.20
67147;DHT22;70072;52.036;5.558;2024-03-22T06:13:22;18.90;66.20
67147;DHT22;70072;52.036;5.558;2024-03-22T06:15:48;18.90;66.20
67147;DHT22;70072;52.036;5.558;2024-03-22T06:18:14;18.90;66.20
67147;DHT22;70072;52.036;5.558;2024-03-22T06:20:43;18.90;66.20
67147;DHT22;70072;52.036;5.558;2024-03-22T06:23:09;18.90;66.20
67147;DHT22;70072;52.036;5.558;2024-03-22T06:25:34;18.90;66.20
67147;DHT22;70072;52.036;5.558;2024-03-22T06:28:00;18.90;66.20
67147;DHT22;70072;52.036;5.558;2024-03-22T06:30:26;18.90;66.20
67147;DHT22;70072;52.036;5.558;2024-03-22T06:32:55;18.90;66.20
67147;DHT22;70072;52.036;5.558;2024-03-22T06:35:24;18.90;66.20
67147;DHT22;70072;52.036;5.558;2024-03-22T06:37:49;18.90;66.20
67147;DHT22;70072;52.036;5.558;2024-03-22T06:40:16;18.90;66.20
67147;DHT22;70072;52.036;5.558;2024-03-22T06:42:41;18.90;66.20
67147;DHT22;70072;52.036;5.558;2024-03-22T06:45:07;18.90;66.20
67147;DHT22;70072;52.036;5.558;2024-03-22T06:47:33;18.90;66.20
67147;DHT22;70072;52.036;5.558;2024-03-22T06:49:58;18.80;66.10
67147;DHT22;70072;52.036;5.558;2024-03-22T06:52:24;18.90;66.20
67147;DHT22;70072;52.036;5.558;2024-03-22T06:54:50;18.90;66.20
67147;DHT22;70072;52.036;5.558;2024-03-22T06:57:15;18.90;66.20
67147;DHT22;70072;52.036;5.558;2024-03-22T06:59:41;18.80;66.20
67147;DHT22;70072;52.036;5.558;2024-03-22T07:02:07;18.90;66.90
67147;DHT22;70072;52.036;5.558;2024-03-22T07:04:34;18.90;66.20
67147;DHT22;70072;52.036;5.558;2024-03-22T07:07:00;18.80;66.20
67147;DHT22;70072;52.036;5.558;2024-03-22T07:09:26;18.90;66.20
67147;DHT22;70072;52.036;5.558;2024-03-22T07:11:54;18.80;66.20
67147;DHT22;70072;52.036;5.558;2024-03-22T07:14:19;18.90;66.20
67147;DHT22;70072;52.036;5.558;2024-03-22T07:16:47;18.90;66.20
67147;DHT22;70072;52.036;5.558;2024-03-22T07:19:13;18.90;66.20
67147;DHT22;70072;52.036;5.558;2024-03-22T07:21:38;18.90;66.20
67147;DHT22;70072;52.036;5.558;2024-03-22T07:24:04;18.90;66.20
67147;DHT22;70072;52.036;5.558;2024-03-22T07:26:30;18.90;66.20
67147;DHT22;70072;52.036;5.558;2024-03-22T07:28:56;18.90;66.20
67147;DHT22;70072;52.036;5.558;2024-03-22T07:31:21;18.90;66.20
67147;DHT22;70072;52.036;5.558;2024-03-22T07:33:47;18.90;66.20
67147;DHT22;70072;52.036;5.558;2024-03-22T07:36:15;18.90;66.10
67147;DHT22;70072;52.036;5.558;2024-03-22T07:38:47;18.90;66.10
67147;DHT22;70072;52.036;5.558;2024-03-22T07:41:14;18.90;66.10
67147;DHT22;70072;52.036;5.558;2024-03-22T07:43:40;18.90;66.10
67147;DHT22;70072;52.036;5.558;2024-03-22T07:46:05;18.90;66.10
67147;DHT22;70072;52.036;5.558;2024-03-22T07:48:31;18.90;66.20
67147;DHT22;70072;52.036;5.558;2024-03-22T07:51:00;18.90;66.20
67147;DHT22;70072;52.036;5.558;2024-03-22T07:53:26;18.90;66.20
67147;DHT22;70072;52.036;5.558;2024-03-22T07:55:52;18.90;66.20
67147;DHT22;70072;52.036;5.558;2024-03-22T07:58:18;18.90;66.20
67147;DHT22;70072;52.036;5.558;2024-03-22T08:00:44;18.90;66.20
67147;DHT22;70072;52.036;5.558;2024-03-22T08:03:16;18.90;66.20
67147;DHT22;70072;52.036;5.558;2024-03-22T08:05:42;18.90;66.20
67147;DHT22;70072;52.036;5.558;2024-03-22T08:08:10;18.90;66.20
67147;DHT22;70072;52.036;5.558;2024-03-22T08:10:36;18.90;66.30
67147;DHT22;70072;52.036;5.558;2024-03-22T08:13:02;18.90;66.30
67147;DHT22;70072;52.036;5.558;2024-03-22T08:15:27;18.90;66.20
67147;DHT22;70072;52.036;5.558;2024-03-22T08:17:53;18.90;66.20
67147;DHT22;70072;52.036;5.558;2024-03-22T08:20:19;18.90;66.20
67147;DHT22;70072;52.036;5.558;2024-03-22T08:22:44;18.90;66.90
67147;DHT22;70072;52.036;5.558;2024-03-22T08:25:10;18.90;66.20
67147;DHT22;70072;52.036;5.558;2024-03-22T08:27:38;18.90;66.30
67147;DHT22;70072;52.036;5.558;2024-03-22T08:30:04;18.90;66.20
67147;DHT22;70072;52.036;5.558;2024-03-22T08:32:32;18.90;66.20
67147;DHT22;70072;52.036;5.558;2024-03-22T08:34:58;18.90;66.20
67147;DHT22;70072;52.036;5.558;2024-03-22T08:37:23;18.90;66.20
67147;DHT22;70072;52.036;5.558;2024-03-22T08:39:49;18.90;66.20
67147;DHT22;70072;52.036;5.558;2024-03-22T08:42:14;18.90;66.20
67147;DHT22;70072;52.036;5.558;2024-03-22T08:44:40;18.90;66.90
67147;DHT22;70072;52.036;5.558;2024-03-22T08:47:09;18.90;66.30
67147;DHT22;70072;52.036;5.558;2024-03-22T08:49:34;18.80;66.20
67147;DHT22;70072;52.036;5.558;2024-03-22T08:52:06;18.90;66.30
67147;DHT22;70072;52.036;5.558;2024-03-22T08:54:34;18.90;66.30
67147;DHT22;70072;52.036;5.558;2024-03-22T08:56:59;18.90;66.30
67147;DHT22;70072;52.036;5.558;2024-03-22T08:59:25;18.90;66.20
67147;DHT22;70072;52.036;5.558;2024-03-22T09:01:51;18.90;66.30
67147;DHT22;70072;52.036;5.558;2024-03-22T09:04:17;18.80;66.20
67147;DHT22;70072;52.036;5.558;2024-03-22T09:06:43;18.90;66.90
67147;DHT22;70072;52.036;5.558;2024-03-22T09:09:11;18.90;66.30
67147;DHT22;70072;52.036;5.558;2024-03-22T09:11:36;18.90;66.30
67147;DHT22;70072;52.036;5.558;2024-03-22T09:14:02;18.90;66.30
67147;DHT22;70072;52.036;5.558;2024-03-22T09:16:28;18.80;66.30
67147;DHT22;70072;52.036;5.558;2024-03-22T09:18:53;18.90;66.30
67147;DHT22;70072;52.036;5.558;2024-03-22T09:21:19;18.90;66.30
67147;DHT22;70072;52.036;5.558;2024-03-22T09:23:45;18.90;66.30
67147;DHT22;70072;52.036;5.558;2024-03-22T09:26:11;18.90;66.30
67147;DHT22;70072;52.036;5.558;2024-03-22T09:28:36;18.90;66.30
67147;DHT22;70072;52.036;5.558;2024-03-22T09:31:10;18.80;66.30
67147;DHT22;70072;52.036;5.558;2024-03-22T09:33:36;18.90;66.40
67147;DHT22;70072;52.036;5.558;2024-03-22T09:36:02;18.90;66.40
67147;DHT22;70072;52.036;5.558;2024-03-22T09:38:28;18.90;66.40
67147;DHT22;70072;52.036;5.558;2024-03-22T09:40:54;18.80;66.40
67147;DHT22;70072;52.036;5.558;2024-03-22T09:43:22;18.90;66.40
67147;DHT22;70072;52.036;5.558;2024-03-22T09:45:49;18.90;66.40
67147;DHT22;70072;52.036;5.558;2024-03-22T09:48:23;18.80;66.30
67147;DHT22;70072;52.036;5.558;2024-03-22T09:50:49;18.90;66.40
67147;DHT22;70072;52.036;5.558;2024-03-22T09:53:19;18.90;66.40
67147;DHT22;70072;52.036;5.558;2024-03-22T09:55:48;18.90;67.10
67147;DHT22;70072;52.036;5.558;2024-03-22T09:58:16;18.90;66.40
67147;DHT22;70072;52.036;5.558;2024-03-22T10:00:44;18.90;66.40
67147;DHT22;70072;52.036;5.558;2024-03-22T10:03:11;18.90;66.40
67147;DHT22;70072;52.036;5.558;2024-03-22T10:05:37;18.90;66.40
67147;DHT22;70072;52.036;5.558;2024-03-22T10:08:05;18.90;66.40
67147;DHT22;70072;52.036;5.558;2024-03-22T10:10:31;18.90;66.40
67147;DHT22;70072;52.036;5.558;2024-03-22T10:12:57;18.80;66.30
67147;DHT22;70072;52.036;5.558;2024-03-22T10:15:24;18.90;66.40
67147;DHT22;70072;52.036;5.558;2024-03-22T10:17:49;18.90;66.40
67147;DHT22;70072;52.036;5.558;2024-03-22T10:20:15;18.90;67.10
67147;DHT22;70072;52.036;5.558;2024-03-22T10:22:53;18.90;67.10
67147;DHT22;70072;52.036;5.558;2024-03-22T10:25:20;18.90;66.50
67147;DHT22;70072;52.036;5.558;2024-03-22T10:27:45;18.90;66.50
67147;DHT22;70072;52.036;5.558;2024-03-22T10:30:16;18.90;66.50
67147;DHT22;70072;52.036;5.558;2024-03-22T10:32:45;18.90;66.50
67147;DHT22;70072;52.036;5.558;2024-03-22T10:35:12;18.90;66.50
67147;DHT22;70072;52.036;5.558;2024-03-22T10:37:39;18.90;66.50
67147;DHT22;70072;52.036;5.558;2024-03-22T10:40:08;18.90;66.50
67147;DHT22;70072;52.036;5.558;2024-03-22T10:42:41;18.90;66.50
67147;DHT22;70072;52.036;5.558;2024-03-22T10:45:08;18.90;66.50
67147;DHT22;70072;52.036;5.558;2024-03-22T10:47:36;18.90;66.50
67147;DHT22;70072;52.036;5.558;2024-03-22T10:50:09;18.90;66.50
67147;DHT22;70072;52.036;5.558;2024-03-22T10:52:57;18.90;66.60
67147;DHT22;70072;52.036;5.558;2024-03-22T10:55:53;18.90;66.60
67147;DHT22;70072;52.036;5.558;2024-03-22T10:58:23;18.90;66.70
67147;DHT22;70072;52.036;5.558;2024-03-22T11:00:54;18.90;66.60
67147;DHT22;70072;52.036;5.558;2024-03-22T11:03:24;18.90;66.60
67147;DHT22;70072;52.036;5.558;2024-03-22T11:05:55;18.90;66.60
67147;DHT22;70072;52.036;5.558;2024-03-22T11:08:25;18.90;66.60
67147;DHT22;70072;52.036;5.558;2024-03-22T11:10:52;18.90;66.60
67147;DHT22;70072;52.036;5.558;2024-03-22T11:13:18;18.90;66.60
67147;DHT22;70072;52.036;5.558;2024-03-22T11:15:43;18.90;67.20
67147;DHT22;70072;52.036;5.558;2024-03-22T11:18:09;18.90;66.60
67147;DHT22;70072;52.036;5.558;2024-03-22T11:20:38;18.90;66.60
67147;DHT22;70072;52.036;5.558;2024-03-22T11:23:04;18.90;66.60
67147;DHT22;70072;52.036;5.558;2024-03-22T11:25:34;18.90;66.60
67147;DHT22;70072;52.036;5.558;2024-03-22T11:28:00;18.90;66.70
67147;DHT22;70072;52.036;5.558;2024-03-22T11:30:31;18.90;66.60
67147;DHT22;70072;52.036;5.558;2024-03-22T11:32:57;18.90;66.70
67147;DHT22;70072;52.036;5.558;2024-03-22T11:35:27;18.90;66.70
67147;DHT22;70072;52.036;5.558;2024-03-22T11:37:53;18.90;66.70
67147;DHT22;70072;52.036;5.558;2024-03-22T11:40:21;18.90;66.70
67147;DHT22;70072;52.036;5.558;2024-03-22T11:42:51;18.90;66.60
67147;DHT22;70072;52.036;5.558;2024-03-22T11:45:18;18.90;66.70
67147;DHT22;70072;52.036;5.558;2024-03-22T11:47:46;18.90;66.70
67147;DHT22;70072;52.036;5.558;2024-03-22T11:50:12;18.90;66.70
67147;DHT22;70072;52.036;5.558;2024-03-22T11:52:41;18.90;66.70
67147;DHT22;70072;52.036;5.558;2024-03-22T11:55:07;18.90;66.70
67147;DHT22;70072;52.036;5.558;2024-03-22T11:57:33;18.90;66.70
67147;DHT22;70072;52.036;5.558;2024-03-22T11:59:59;18.90;66.70
67147;DHT22;70072;52.036;5.558;2024-03-22T12:02:25;18.90;66.70
67147;DHT22;70072;52.036;5.558;2024-03-22T12:04:51;18.90;66.70
67147;DHT22;70072;52.036;5.558;2024-03-22T12:07:17;18.90;66.70
67147;DHT22;70072;52.036;5.558;2024-03-22T12:09:46;18.90;66.70
67147;DHT22;70072;52.036;5.558;2024-03-22T12:12:13;18.90;66.70
67147;DHT22;70072;52.036;5.558;2024-03-22T12:14:41;18.90;66.70
67147;DHT22;70072;52.036;5.558;2024-03-22T12:17:07;18.90;66.70
67147;DHT22;70072;52.036;5.558;2024-03-22T12:19:33;18.90;67.30
67147;DHT22;70072;52.036;5.558;2024-03-22T12:21:59;18.90;66.70
67147;DHT22;70072;52.036;5.558;2024-03-22T12:24:26;18.90;66.70
67147;DHT22;70072;52.036;5.558;2024-03-22T12:26:53;18.90;66.70
67147;DHT22;70072;52.036;5.558;2024-03-22T12:29:19;18.90;66.70
67147;DHT22;70072;52.036;5.558;2024-03-22T12:31:45;18.90;66.70
67147;DHT22;70072;52.036;5.558;2024-03-22T12:34:11;18.90;66.70
67147;DHT22;70072;52.036;5.558;2024-03-22T12:36:37;18.90;66.70
67147;DHT22;70072;52.036;5.558;2024-03-22T12:39:02;18.90;66.70
67147;DHT22;70072;52.036;5.558;2024-03-22T12:41:29;18.90;66.70
67147;DHT22;70072;52.036;5.558;2024-03-22T12:43:55;18.90;66.70
67147;DHT22;70072;52.036;5.558;2024-03-22T12:46:21;18.90;66.70
67147;DHT22;70072;52.036;5.558;2024-03-22T12:48:48;18.90;66.70
67147;DHT22;70072;52.036;5.558;2024-03-22T12:51:14;18.90;66.70
67147;DHT22;70072;52.036;5.558;2024-03-22T12:53:40;18.90;66.70
67147;DHT22;70072;52.036;5.558;2024-03-22T12:56:08;18.90;66.70
67147;DHT22;70072;52.036;5.558;2024-03-22T12:58:34;18.90;66.70
67147;DHT22;70072;52.036;5.558;2024-03-22T13:01:01;18.90;66.70
67147;DHT22;70072;52.036;5.558;2024-03-22T13:03:28;18.90;66.70
67147;DHT22;70072;52.036;5.558;2024-03-22T13:05:54;18.90;66.70
67147;DHT22;70072;52.036;5.558;2024-03-22T13:08:22;18.90;66.70
67147;DHT22;70072;52.036;5.558;2024-03-22T13:10:47;19.00;66.80
67147;DHT22;70072;52.036;5.558;2024-03-22T13:13:16;18.90;66.70
67147;DHT22;70072;52.036;5.558;2024-03-22T13:15:45;18.90;66.70
67147;DHT22;70072;52.036;5.558;2024-03-22T13:18:12;18.90;66.70
67147;DHT22;70072;52.036;5.558;2024-03-22T13:20:38;18.90;66.70
67147;DHT22;70072;52.036;5.558;2024-03-22T13:23:04;19.00;66.80
67147;DHT22;70072;52.036;5.558;2024-03-22T13:25:30;18.90;66.70
67147;DHT22;70072;52.036;5.558;2024-03-22T13:27:56;19.00;66.80
67147;DHT22;70072;52.036;5.558;2024-03-22T13:30:22;19.00;66.70
67147;DHT22;70072;52.036;5.558;2024-03-22T13:32:47;19.00;66.80
67147;DHT22;70072;52.036;5.558;2024-03-22T13:35:13;18.90;66.70
67147;DHT22;70072;52.036;5.558;2024-03-22T13:37:40;19.00;66.70
67147;DHT22;70072;52.036;5.558;2024-03-22T13:40:06;18.90;66.70
67147;DHT22;70072;52.036;5.558;2024-03-22T13:42:32;19.00;66.80
67147;DHT22;70072;52.036;5.558;2024-03-22T13:44:58;19.00;66.70
67147;DHT22;70072;52.036;5.558;2024-03-22T13:47:24;19.00;67.40
67147;DHT22;70072;52.036;5.558;2024-03-22T13:49:50;18.90;66.70
67147;DHT22;70072;52.036;5.558;2024-03-22T13:52:15;18.90;66.70
67147;DHT22;70072;52.036;5.558;2024-03-22T13:54:41;18.90;66.70
67147;DHT22;70072;52.036;5.558;2024-03-22T13:57:07;18.90;66.70
67147;DHT22;70072;52.036;5.558;2024-03-22T13:59:32;19.00;66.70
67147;DHT22;70072;52.036;5.558;2024-03-22T14:01:59;19.00;66.70
67147;DHT22;70072;52.036;5.558;2024-03-22T14:04:24;19.00;66.70
67147;DHT22;70072;52.036;5.558;2024-03-22T14:06:53;19.00;66.70
67147;DHT22;70072;52.036;5.558;2024-03-22T14:09:22;18.90;66.60
67147;DHT22;70072;52.036;5.558;2024-03-22T14:11:47;19.00;66.70
67147;DHT22;70072;52.036;5.558;2024-03-22T14:14:14;19.00;66.70
67147;DHT22;70072;52.036;5.558;2024-03-22T14:16:40;19.00;66.60
67147;DHT22;70072;52.036;5.558;2024-03-22T14:19:09;19.00;66.60
67147;DHT22;70072;52.036;5.558;2024-03-22T14:21:35;19.00;66.60
67147;DHT22;70072;52.036;5.558;2024-03-22T14:24:01;19.00;66.60
67147;DHT22;70072;52.036;5.558;2024-03-22T14:26:28;19.00;66.60
67147;DHT22;70072;52.036;5.558;2024-03-22T14:28:54;19.00;66.60
67147;DHT22;70072;52.036;5.558;2024-03-22T14:31:19;18.90;66.60
67147;DHT22;70072;52.036;5.558;2024-03-22T14:33:45;19.00;66.60
67147;DHT22;70072;52.036;5.558;2024-03-22T14:36:13;19.00;66.60
67147;DHT22;70072;52.036;5.558;2024-03-22T14:38:39;18.90;66.60
67147;DHT22;70072;52.036;5.558;2024-03-22T14:41:05;18.90;66.60
67147;DHT22;70072;52.036;5.558;2024-03-22T14:43:31;18.90;66.60
67147;DHT22;70072;52.036;5.558;2024-03-22T14:45:59;18.90;66.60
67147;DHT22;70072;52.036;5.558;2024-03-22T14:48:25;19.00;66.60
67147;DHT22;70072;52.036;5.558;2024-03-22T14:50:51;18.90;66.60
67147;DHT22;70072;52.036;5.558;2024-03-22T14:53:21;19.00;66.60
67147;DHT22;70072;52.036;5.558;2024-03-22T14:56:01;19.00;66.60
67147;DHT22;70072;52.036;5.558;2024-03-22T14:58:34;19.00;66.60
67147;DHT22;70072;52.036;5.558;2024-03-22T15:01:02;18.90;66.60
67147;DHT22;70072;52.036;5.558;2024-03-22T15:03:30;18.90;66.60
67147;DHT22;70072;52.036;5.558;2024-03-22T15:05:57;19.00;66.60
67147;DHT22;70072;52.036;5.558;2024-03-22T15:08:27;19.00;66.60
67147;DHT22;70072;52.036;5.558;2024-03-22T15:10:58;19.00;66.60
67147;DHT22;70072;52.036;5.558;2024-03-22T15:13:24;18.90;66.60
67147;DHT22;70072;52.036;5.558;2024-03-22T15:15:56;19.00;66.60
67147;DHT22;70072;52.036;5.558;2024-03-22T15:18:23;19.00;66.60
67147;DHT22;70072;52.036;5.558;2024-03-22T15:20:49;18.90;66.60
67147;DHT22;70072;52.036;5.558;2024-03-22T15:23:16;18.90;66.60
67147;DHT22;70072;52.036;5.558;2024-03-22T15:25:42;18.90;66.60
67147;DHT22;70072;52.036;5.558;2024-03-22T15:28:11;19.00;66.70
67147;DHT22;70072;52.036;5.558;2024-03-22T15:30:37;18.90;66.60